createdAt,value
2022-12-24T00:00:33.661Z,85.13
2022-12-24T00:02:50.760Z,84.63
2022-12-24T00:05:08.026Z,84.89
2022-12-24T00:07:25.922Z,84.66
2022-12-24T00:09:43.853Z,84.45
2022-12-24T00:12:00.858Z,83.86
2022-12-24T00:14:19.177Z,84.98
2022-12-24T00:16:36.290Z,85.04
2022-12-24T00:18:53.682Z,84.86
2022-12-24T00:21:10.749Z,83.99
2022-12-24T00:23:29.025Z,83.72
2022-12-24T00:25:46.037Z,83.77
2022-12-24T00:28:03.128Z,84.36
2022-12-24T00:30:20.464Z,83.33
2022-12-24T00:32:40.734Z,83.62
2022-12-24T00:34:57.653Z,83.87
2022-12-24T00:37:14.617Z,84.41
2022-12-24T00:39:31.968Z,84.81
2022-12-24T00:41:50.141Z,85.08
2022-12-24T00:44:07.108Z,84.97
2022-12-24T00:46:24.078Z,85.81
2022-12-24T00:48:41.518Z,84.35
2022-12-24T00:50:58.551Z,85.20
2022-12-24T00:53:15.554Z,86.43
2022-12-24T00:55:32.895Z,85.43
2022-12-24T00:57:49.908Z,85.69
2022-12-24T01:00:07.571Z,86.71
2022-12-24T01:02:24.744Z,85.32
2022-12-24T01:04:41.837Z,87.38
2022-12-24T01:06:58.826Z,87.40
2022-12-24T01:09:15.860Z,88.00
2022-12-24T01:11:33.135Z,87.61
2022-12-24T01:13:50.178Z,88.61
2022-12-24T01:16:07.163Z,89.44
2022-12-24T01:18:24.513Z,89.56
2022-12-24T01:20:41.539Z,90.33
2022-12-24T01:22:58.743Z,90.98
2022-12-24T01:25:15.669Z,90.96
2022-12-24T01:27:32.687Z,90.34
2022-12-24T01:29:50.622Z,91.63
2022-12-24T01:32:07.605Z,91.98
2022-12-24T01:34:24.661Z,91.53
2022-12-24T01:36:41.643Z,90.79
2022-12-24T01:38:58.558Z,89.76
2022-12-24T01:41:15.794Z,90.82
2022-12-24T01:43:32.867Z,90.34
2022-12-24T01:45:50.162Z,90.87
2022-12-24T01:48:07.135Z,90.83
2022-12-24T01:50:24.343Z,90.45
2022-12-24T01:52:41.217Z,90.71
2022-12-24T01:54:58.149Z,90.52
2022-12-24T01:57:15.170Z,89.49
2022-12-24T01:59:32.377Z,89.35
2022-12-24T02:01:49.379Z,89.49
2022-12-24T02:04:06.406Z,89.27
2022-12-24T02:06:23.424Z,88.10
2022-12-24T02:08:41.469Z,89.16
2022-12-24T02:10:58.781Z,89.29
2022-12-24T02:13:16.107Z,89.66
2022-12-24T02:15:33.026Z,89.51
2022-12-24T02:17:49.967Z,90.35
2022-12-24T02:20:06.835Z,90.57
2022-12-24T02:22:23.762Z,91.20
2022-12-24T02:24:41.709Z,91.78
2022-12-24T02:26:59.009Z,90.75
2022-12-24T02:29:16.069Z,90.73
2022-12-24T02:31:33.391Z,92.13
2022-12-24T02:33:50.404Z,91.63
2022-12-24T02:36:07.654Z,91.13
2022-12-24T02:38:24.546Z,92.03
2022-12-24T02:40:41.514Z,91.58
2022-12-24T02:42:59.392Z,92.87
2022-12-24T02:45:16.301Z,92.38
2022-12-24T02:47:34.040Z,92.09
2022-12-24T02:49:51.361Z,91.75
2022-12-24T02:52:08.422Z,90.95
2022-12-24T02:54:25.645Z,88.91
2022-12-24T02:56:43.521Z,88.18
2022-12-24T02:59:00.493Z,88.31
2022-12-24T03:01:17.905Z,89.13
2022-12-24T03:03:35.088Z,89.89
2022-12-24T03:05:51.973Z,89.74
2022-12-24T03:08:09.333Z,90.64
2022-12-24T03:10:26.200Z,92.23
2022-12-24T03:12:43.128Z,91.83
2022-12-24T03:15:00.402Z,91.88
2022-12-24T03:17:17.388Z,92.26
2022-12-24T03:19:34.717Z,92.57
2022-12-24T03:21:52.049Z,92.30
2022-12-24T03:24:10.083Z,93.07
2022-12-24T03:26:27.343Z,92.43
2022-12-24T03:28:44.422Z,92.62
2022-12-24T03:31:02.470Z,92.31
2022-12-24T03:33:19.431Z,92.58
2022-12-24T03:35:36.365Z,93.16
2022-12-24T03:37:53.398Z,93.37
2022-12-24T03:40:10.656Z,94.19
2022-12-24T03:42:27.673Z,93.84
2022-12-24T03:44:44.613Z,95.19
2022-12-24T03:47:01.639Z,93.72
2022-12-24T03:49:18.573Z,92.88
2022-12-24T03:51:35.488Z,92.36
2022-12-24T03:53:52.409Z,92.05
2022-12-24T03:56:09.295Z,91.36
2022-12-24T03:58:26.273Z,90.35
2022-12-24T04:00:43.222Z,90.47
2022-12-24T04:03:00.215Z,90.02
2022-12-24T04:05:17.252Z,89.37
2022-12-24T04:07:34.225Z,89.40
2022-12-24T04:09:51.250Z,90.12
2022-12-24T04:12:08.161Z,88.65
2022-12-24T04:14:25.363Z,89.17
2022-12-24T04:16:42.763Z,88.36
2022-12-24T04:18:59.962Z,87.92
2022-12-24T04:21:17.007Z,87.75
2022-12-24T04:23:34.263Z,87.85
2022-12-24T04:25:51.331Z,87.99
2022-12-24T04:28:09.385Z,87.72
2022-12-24T04:30:26.724Z,87.41
2022-12-24T04:32:43.986Z,87.61
2022-12-24T04:35:00.973Z,87.70
2022-12-24T04:37:17.972Z,88.00
2022-12-24T04:39:35.007Z,87.53
2022-12-24T04:41:52.241Z,88.46
2022-12-24T04:44:09.257Z,89.33
2022-12-24T04:46:26.355Z,88.44
2022-12-24T04:48:43.386Z,88.75
2022-12-24T04:51:00.567Z,89.05
2022-12-24T04:53:17.559Z,89.21
2022-12-24T04:55:34.552Z,89.04
2022-12-24T04:57:53.207Z,89.98
2022-12-24T05:00:11.506Z,89.40
2022-12-24T05:02:28.732Z,89.06
2022-12-24T05:04:45.739Z,88.05
2022-12-24T05:07:02.773Z,88.84
2022-12-24T05:09:19.645Z,88.07
2022-12-24T05:11:36.904Z,89.37
2022-12-24T05:13:53.964Z,89.51
2022-12-24T05:16:11.094Z,90.44
2022-12-24T05:18:28.003Z,90.97
2022-12-24T05:20:44.887Z,90.63
2022-12-24T05:23:01.795Z,90.38
2022-12-24T05:25:19.109Z,91.17
2022-12-24T05:27:36.132Z,90.95
2022-12-24T05:29:53.133Z,92.19
2022-12-24T05:32:10.216Z,90.71
2022-12-24T05:34:28.496Z,92.21
2022-12-24T05:36:45.567Z,92.20
2022-12-24T05:39:02.603Z,91.22
2022-12-24T05:41:19.875Z,92.42
2022-12-24T05:43:36.795Z,92.58
2022-12-24T05:45:53.787Z,91.69
2022-12-24T05:48:10.716Z,92.26
2022-12-24T05:50:27.631Z,92.67
2022-12-24T05:52:44.740Z,92.74
2022-12-24T05:55:01.752Z,93.77
2022-12-24T05:57:19.038Z,94.29
2022-12-24T05:59:36.087Z,94.62
2022-12-24T06:01:53.398Z,93.94
2022-12-24T06:04:10.687Z,93.71
2022-12-24T06:06:28.005Z,95.17
2022-12-24T06:08:45.278Z,95.57
2022-12-24T06:11:02.571Z,95.12
2022-12-24T06:13:19.820Z,96.21
2022-12-24T06:15:36.882Z,96.13
2022-12-24T06:17:54.988Z,95.02
2022-12-24T06:20:12.360Z,95.35
2022-12-24T06:22:29.267Z,96.37
2022-12-24T06:24:46.301Z,96.25
2022-12-24T06:27:03.350Z,96.71
2022-12-24T06:29:20.635Z,95.68
2022-12-24T06:31:37.950Z,96.51
2022-12-24T06:33:55.190Z,95.89
2022-12-24T06:36:17.221Z,96.29
2022-12-24T06:38:35.235Z,96.97
2022-12-24T06:40:52.175Z,95.88
2022-12-24T06:43:09.170Z,95.78
2022-12-24T06:45:26.172Z,95.60
2022-12-24T06:47:43.241Z,96.93
2022-12-24T06:50:00.494Z,96.19
2022-12-24T06:52:17.412Z,96.54
2022-12-24T06:54:34.349Z,95.46
2022-12-24T06:56:51.446Z,95.45
2022-12-24T06:59:08.762Z,94.81
2022-12-24T07:01:25.824Z,94.82
2022-12-24T07:03:42.948Z,94.72
2022-12-24T07:06:00.260Z,94.63
2022-12-24T07:08:17.306Z,93.99
2022-12-24T07:10:34.335Z,95.25
2022-12-24T07:12:51.377Z,94.69
2022-12-24T07:15:08.337Z,94.73
2022-12-24T07:17:25.726Z,93.32
2022-12-24T07:19:42.745Z,92.84
2022-12-24T07:21:59.720Z,93.32
2022-12-24T07:24:16.627Z,93.58
2022-12-24T07:26:33.945Z,93.72
2022-12-24T07:28:50.977Z,93.77
2022-12-24T07:31:08.268Z,93.66
2022-12-24T07:33:25.219Z,93.92
2022-12-24T07:35:42.503Z,95.02
2022-12-24T07:37:59.543Z,93.99
2022-12-24T07:40:16.757Z,94.11
2022-12-24T07:42:33.651Z,94.09
2022-12-24T07:44:50.928Z,94.09
2022-12-24T07:47:08.136Z,93.34
2022-12-24T07:49:25.406Z,93.20
2022-12-24T07:51:43.667Z,94.47
2022-12-24T07:54:00.587Z,93.53
2022-12-24T07:56:18.692Z,94.15
2022-12-24T07:58:35.996Z,93.98
2022-12-24T08:00:52.978Z,93.90
2022-12-24T08:03:10.133Z,93.75
2022-12-24T08:05:27.233Z,93.31
2022-12-24T08:07:44.245Z,93.62
2022-12-24T08:10:01.221Z,93.20
2022-12-24T08:12:18.511Z,91.31
2022-12-24T08:14:36.493Z,91.66
2022-12-24T08:16:53.368Z,91.41
2022-12-24T08:19:11.119Z,90.54
2022-12-24T08:21:46.416Z,89.12
2022-12-24T08:24:03.481Z,89.89
2022-12-24T08:26:20.488Z,87.71
2022-12-24T08:28:37.478Z,88.03
2022-12-24T08:30:55.437Z,88.21
2022-12-24T08:33:12.630Z,87.80
2022-12-24T08:35:30.664Z,88.00
2022-12-24T08:37:48.671Z,87.79
2022-12-24T08:40:05.903Z,87.78
2022-12-24T08:42:22.886Z,87.67
2022-12-24T08:44:39.830Z,87.89
2022-12-24T08:46:57.887Z,87.72
2022-12-24T08:49:15.763Z,88.13
2022-12-24T08:51:32.718Z,87.72
2022-12-24T08:53:50.654Z,87.81
2022-12-24T08:56:08.049Z,87.53
2022-12-24T08:58:25.250Z,88.44
2022-12-24T09:00:42.665Z,87.19
2022-12-24T09:02:59.727Z,87.09
2022-12-24T09:05:18.009Z,86.44
2022-12-24T09:07:35.009Z,85.23
2022-12-24T09:09:52.062Z,85.07
2022-12-24T09:12:08.975Z,85.69
2022-12-24T09:14:26.003Z,85.16
2022-12-24T09:16:44.023Z,85.46
2022-12-24T09:19:01.103Z,84.90
2022-12-24T09:21:18.422Z,84.75
2022-12-24T09:23:35.808Z,84.86
2022-12-24T09:25:52.749Z,85.34
2022-12-24T09:28:09.805Z,84.77
2022-12-24T09:30:26.763Z,83.91
2022-12-24T09:32:44.135Z,84.54
2022-12-24T09:35:02.442Z,84.96
2022-12-24T09:37:19.682Z,84.58
2022-12-24T09:39:36.729Z,84.15
2022-12-24T09:41:53.791Z,85.23
2022-12-24T09:44:10.806Z,84.65
2022-12-24T09:46:28.107Z,84.06
2022-12-24T09:48:45.486Z,84.64
2022-12-24T09:51:02.596Z,84.77
2022-12-24T09:53:19.610Z,85.91
2022-12-24T09:55:37.564Z,85.93
2022-12-24T09:57:55.284Z,87.00
2022-12-24T10:00:12.260Z,86.13
2022-12-24T10:02:29.379Z,86.89
2022-12-24T10:04:46.478Z,87.29
2022-12-24T10:07:03.407Z,88.02
2022-12-24T10:09:20.684Z,88.43
2022-12-24T10:11:38.626Z,88.28
2022-12-24T10:13:55.609Z,87.99
2022-12-24T10:16:12.727Z,88.11
2022-12-24T10:18:29.836Z,88.79
2022-12-24T10:20:47.069Z,87.86
2022-12-24T10:23:04.363Z,88.39
2022-12-24T10:25:21.666Z,88.20
2022-12-24T10:27:39.030Z,89.05
2022-12-24T10:29:56.083Z,88.95
2022-12-24T10:32:13.335Z,88.53
2022-12-24T10:34:30.336Z,89.47
2022-12-24T10:36:48.690Z,89.53
2022-12-24T10:39:05.699Z,89.28
2022-12-24T10:41:24.050Z,90.00
2022-12-24T10:43:41.123Z,90.15
2022-12-24T10:45:58.054Z,90.53
2022-12-24T10:48:15.042Z,90.24
2022-12-24T10:50:32.084Z,90.85
2022-12-24T10:52:50.109Z,90.69
2022-12-24T10:55:07.190Z,90.67
2022-12-24T10:57:24.283Z,90.93
2022-12-24T10:59:41.227Z,89.73
2022-12-24T11:01:58.352Z,90.07
2022-12-24T11:04:15.414Z,88.64
2022-12-24T11:06:32.454Z,89.33
2022-12-24T11:08:49.473Z,89.58
2022-12-24T11:11:07.381Z,88.28
2022-12-24T11:13:37.525Z,89.34
2022-12-24T11:15:55.451Z,89.72
2022-12-24T11:18:12.503Z,90.05
2022-12-24T11:20:29.475Z,90.67
2022-12-24T11:22:46.773Z,90.47
2022-12-24T11:25:04.960Z,90.56
2022-12-24T11:27:22.273Z,90.69
2022-12-24T11:29:39.363Z,91.32
2022-12-24T11:31:56.337Z,91.01
2022-12-24T11:34:13.644Z,90.95
2022-12-24T11:36:30.717Z,90.68
2022-12-24T11:38:47.760Z,90.68
2022-12-24T11:41:06.154Z,90.28
2022-12-24T11:43:23.206Z,90.44
2022-12-24T11:45:40.436Z,89.94
2022-12-24T11:47:57.481Z,89.89
2022-12-24T11:50:18.522Z,89.40
2022-12-24T11:52:36.971Z,89.42
2022-12-24T11:54:53.961Z,88.82
2022-12-24T11:57:10.931Z,88.97
2022-12-24T11:59:28.278Z,89.30
2022-12-24T12:01:45.259Z,88.83
2022-12-24T12:04:02.333Z,88.46
2022-12-24T12:06:19.581Z,88.38
2022-12-24T12:08:36.537Z,88.44
2022-12-24T12:10:53.816Z,88.00
2022-12-24T12:13:14.965Z,88.45
2022-12-24T12:15:32.608Z,87.88
2022-12-24T12:17:49.668Z,87.61
2022-12-24T12:20:06.953Z,87.55
2022-12-24T12:22:23.939Z,87.35
2022-12-24T12:24:40.777Z,86.86
2022-12-24T12:26:57.864Z,87.38
2022-12-24T12:29:14.883Z,86.48
2022-12-24T12:31:31.812Z,86.91
2022-12-24T12:33:49.115Z,87.51
2022-12-24T12:36:06.228Z,87.83
2022-12-24T12:38:23.225Z,87.14
2022-12-24T12:40:40.221Z,87.91
2022-12-24T12:42:57.495Z,87.31
2022-12-24T12:45:14.447Z,87.48
2022-12-24T12:47:31.459Z,87.24
2022-12-24T12:49:48.353Z,88.11
2022-12-24T12:52:05.282Z,87.60
2022-12-24T12:54:23.485Z,86.17
2022-12-24T12:56:40.501Z,86.74
2022-12-24T12:58:57.831Z,86.58
2022-12-24T13:01:15.025Z,87.10
2022-12-24T13:03:32.301Z,86.79
2022-12-24T13:05:49.666Z,87.29
2022-12-24T13:08:07.675Z,87.94
2022-12-24T13:10:24.760Z,88.67
2022-12-24T13:12:42.137Z,89.22
2022-12-24T13:14:59.057Z,90.39
2022-12-24T13:17:16.067Z,90.08
2022-12-24T13:19:38.060Z,90.25
2022-12-24T13:21:55.668Z,90.54
2022-12-24T13:24:12.729Z,90.66
2022-12-24T13:26:29.767Z,90.77
2022-12-24T13:28:47.095Z,90.41
2022-12-24T13:31:04.034Z,90.74
2022-12-24T13:33:21.025Z,91.20
2022-12-24T13:35:38.894Z,90.18
2022-12-24T13:37:56.048Z,88.36
2022-12-24T13:40:13.333Z,88.66
2022-12-24T13:42:30.329Z,89.50
2022-12-24T13:44:47.307Z,90.25
2022-12-24T13:47:04.278Z,89.72
2022-12-24T13:49:21.629Z,89.33
2022-12-24T13:51:38.675Z,90.10
2022-12-24T13:53:56.096Z,90.52
2022-12-24T13:56:13.380Z,91.23
2022-12-24T13:58:30.738Z,91.72
2022-12-24T14:00:47.625Z,92.76
2022-12-24T14:03:04.819Z,92.89
2022-12-24T14:05:23.346Z,93.42
2022-12-24T14:07:40.398Z,93.35
2022-12-24T14:09:57.509Z,93.71
2022-12-24T14:12:16.978Z,93.43
2022-12-24T14:14:34.264Z,93.28
2022-12-24T14:16:51.740Z,93.27
2022-12-24T14:19:08.778Z,93.31
2022-12-24T14:21:25.828Z,93.09
2022-12-24T14:23:42.867Z,94.12
2022-12-24T14:25:59.886Z,93.61
2022-12-24T14:28:17.166Z,94.10
2022-12-24T14:30:34.247Z,94.50
2022-12-24T14:32:52.182Z,93.86
2022-12-24T14:35:10.177Z,94.82
2022-12-24T14:37:32.989Z,95.30
2022-12-24T14:39:51.913Z,96.09
2022-12-24T14:42:08.929Z,96.46
2022-12-24T14:44:28.514Z,96.74
2022-12-24T14:46:49.642Z,96.72
2022-12-24T14:49:06.698Z,97.01
2022-12-24T14:51:23.743Z,97.03
2022-12-24T14:53:41.040Z,97.75
2022-12-24T14:55:58.272Z,98.08
2022-12-24T14:58:15.265Z,97.29
2022-12-24T15:00:39.151Z,98.40
2022-12-24T15:02:56.425Z,97.75
2022-12-24T15:05:13.663Z,98.04
2022-12-24T15:07:30.661Z,98.29
2022-12-24T15:09:48.001Z,98.53
2022-12-24T15:12:06.050Z,98.71
2022-12-24T15:14:22.984Z,98.90
2022-12-24T15:16:40.116Z,99.39
2022-12-24T15:18:57.168Z,98.14
2022-12-24T15:21:14.106Z,98.64
2022-12-24T15:23:31.152Z,99.32
2022-12-24T15:25:48.141Z,99.37
2022-12-24T15:28:05.119Z,98.58
2022-12-24T15:30:23.399Z,98.96
2022-12-24T15:32:40.381Z,98.96
2022-12-24T15:34:58.373Z,99.36
2022-12-24T15:37:15.706Z,98.93
2022-12-24T15:39:32.729Z,97.92
2022-12-24T15:41:49.739Z,98.51
2022-12-24T15:44:06.784Z,99.91
2022-12-24T15:46:23.792Z,99.14
2022-12-24T15:48:41.172Z,99.28
2022-12-24T15:50:58.467Z,99.69
2022-12-24T15:53:19.471Z,100.00
2022-12-24T15:55:39.167Z,99.33
2022-12-24T15:57:56.476Z,99.19
2022-12-24T16:00:13.538Z,100.00
2022-12-24T16:02:30.916Z,99.30
2022-12-24T16:04:47.982Z,99.60
2022-12-24T16:07:05.345Z,99.28
2022-12-24T16:09:22.241Z,99.83
2022-12-24T16:11:39.281Z,99.28
2022-12-24T16:13:56.499Z,100.00
2022-12-24T16:16:13.563Z,99.78
2022-12-24T16:18:30.543Z,99.26
2022-12-24T16:20:47.497Z,99.62
2022-12-24T16:23:04.757Z,99.57
2022-12-24T16:25:22.096Z,98.70
2022-12-24T16:27:38.985Z,99.69
2022-12-24T16:29:55.908Z,99.90
2022-12-24T16:32:12.910Z,98.87
2022-12-24T16:34:29.934Z,99.90
2022-12-24T16:36:46.885Z,100.00
2022-12-24T16:39:03.812Z,99.99
2022-12-24T16:41:20.706Z,99.08
2022-12-24T16:43:37.799Z,100.00
2022-12-24T16:45:54.752Z,99.29
2022-12-24T16:48:12.036Z,99.63
2022-12-24T16:50:29.040Z,99.60
2022-12-24T16:52:45.939Z,100.00
2022-12-24T16:55:02.796Z,100.00
2022-12-24T16:57:19.816Z,100.00
2022-12-24T16:59:36.829Z,100.00
2022-12-24T17:01:54.246Z,100.00
2022-12-24T17:04:11.396Z,100.00
2022-12-24T17:06:28.348Z,100.00
2022-12-24T17:08:45.453Z,100.00
2022-12-24T17:11:02.750Z,99.61
2022-12-24T17:13:19.992Z,100.00
2022-12-24T17:15:37.037Z,100.00
2022-12-24T17:17:54.103Z,99.79
2022-12-24T17:20:11.032Z,99.62
2022-12-24T17:22:29.091Z,99.70
2022-12-24T17:24:46.133Z,100.00
2022-12-24T17:27:03.158Z,100.00
2022-12-24T17:29:20.244Z,100.00
2022-12-24T17:31:38.369Z,100.00
2022-12-24T17:33:55.389Z,100.00
2022-12-24T17:36:12.677Z,100.00
2022-12-24T17:38:29.745Z,100.00
2022-12-24T17:40:46.675Z,100.00
2022-12-24T17:43:03.929Z,100.00
2022-12-24T17:45:22.206Z,100.00
2022-12-24T17:47:39.158Z,100.00
2022-12-24T17:49:57.172Z,100.00
2022-12-24T17:52:14.036Z,100.00
2022-12-24T17:54:30.912Z,100.00
2022-12-24T17:56:48.173Z,100.00
2022-12-24T17:59:05.226Z,100.00
2022-12-24T18:01:22.295Z,100.00
2022-12-24T18:03:39.306Z,100.00
2022-12-24T18:05:57.586Z,100.00
2022-12-24T18:08:14.637Z,100.00
2022-12-24T18:10:31.639Z,100.00
2022-12-24T18:12:48.645Z,100.00
2022-12-24T18:15:05.962Z,100.00
2022-12-24T18:17:22.946Z,100.00
2022-12-24T18:19:40.227Z,100.00
2022-12-24T18:21:57.207Z,100.00
2022-12-24T18:24:14.452Z,100.00
2022-12-24T18:26:31.731Z,100.00
2022-12-24T18:28:48.805Z,100.00
2022-12-24T18:31:05.855Z,100.00
2022-12-24T18:33:22.935Z,100.00
2022-12-24T18:35:39.873Z,100.00
2022-12-24T18:37:57.131Z,100.00
2022-12-24T18:40:14.068Z,100.00
2022-12-24T18:42:31.484Z,100.00
2022-12-24T18:44:49.523Z,100.00
2022-12-24T18:47:06.848Z,100.00
2022-12-24T18:49:24.182Z,100.00
2022-12-24T18:51:41.147Z,100.00
2022-12-24T18:53:58.522Z,100.00
2022-12-24T18:56:15.941Z,100.00
2022-12-24T18:58:32.974Z,100.00
2022-12-24T19:00:50.319Z,100.00
2022-12-24T19:03:08.333Z,100.00
2022-12-24T19:05:26.048Z,100.00
2022-12-24T19:07:42.987Z,100.00
2022-12-24T19:10:00.048Z,100.00
2022-12-24T19:12:18.537Z,100.00
2022-12-24T19:14:35.563Z,100.00
2022-12-24T19:16:52.637Z,100.00
2022-12-24T19:19:10.001Z,100.00
2022-12-24T19:21:27.538Z,100.00
2022-12-24T19:23:44.621Z,100.00
2022-12-24T19:26:01.619Z,100.00
2022-12-24T19:30:53.477Z,100.00
2022-12-24T19:33:10.764Z,100.00
2022-12-24T19:35:27.775Z,100.00
2022-12-24T19:37:44.925Z,100.00
2022-12-24T19:40:01.884Z,100.00
2022-12-24T19:42:18.956Z,100.00
2022-12-24T19:44:35.998Z,100.00
2022-12-24T19:46:53.161Z,100.00
2022-12-24T19:49:10.526Z,100.00
2022-12-24T19:51:28.452Z,100.00
2022-12-24T19:53:45.733Z,100.00
2022-12-24T19:56:02.998Z,100.00
2022-12-24T19:58:21.081Z,100.00
2022-12-24T20:00:38.455Z,100.00
2022-12-24T20:02:55.609Z,100.00
2022-12-24T20:05:12.969Z,100.00
2022-12-24T20:07:30.327Z,100.00
2022-12-24T20:09:47.321Z,100.00
2022-12-24T20:12:05.302Z,100.00
2022-12-24T20:14:24.179Z,100.00
2022-12-24T20:16:41.281Z,100.00
2022-12-24T20:18:58.427Z,100.00
2022-12-24T20:21:15.319Z,100.00
2022-12-24T20:23:32.578Z,100.00
2022-12-24T20:25:49.496Z,100.00
2022-12-24T20:28:06.790Z,100.00
2022-12-24T20:30:23.796Z,100.00
2022-12-24T20:32:40.679Z,100.00
2022-12-24T20:34:59.592Z,100.00
2022-12-24T20:37:16.710Z,100.00
2022-12-24T20:39:34.026Z,100.00
2022-12-24T20:41:51.408Z,100.00
2022-12-24T20:44:08.768Z,100.00
2022-12-24T20:46:26.489Z,100.00
2022-12-24T20:48:43.447Z,100.00
2022-12-24T20:51:00.753Z,100.00
2022-12-24T20:53:17.967Z,100.00
2022-12-24T20:55:34.867Z,100.00
2022-12-24T20:57:51.894Z,100.00
2022-12-24T21:00:08.827Z,100.00
2022-12-24T21:02:26.366Z,100.00
2022-12-24T21:04:43.588Z,100.00
2022-12-24T21:07:00.679Z,100.00
2022-12-24T21:09:17.753Z,100.00
2022-12-24T21:11:35.167Z,100.00
2022-12-24T21:13:52.110Z,100.00
2022-12-24T21:16:11.324Z,100.00
2022-12-24T21:18:28.326Z,100.00
2022-12-24T21:20:45.281Z,100.00
2022-12-24T21:23:02.212Z,100.00
2022-12-24T21:25:19.087Z,100.00
2022-12-24T21:27:36.416Z,100.00
2022-12-24T21:29:53.731Z,100.00
2022-12-24T21:32:11.128Z,100.00
2022-12-24T21:34:28.226Z,100.00
2022-12-24T21:36:45.537Z,100.00
2022-12-24T21:39:02.980Z,100.00
2022-12-24T21:41:20.307Z,100.00
2022-12-24T21:43:37.291Z,100.00
2022-12-24T21:45:54.373Z,100.00
2022-12-24T21:48:11.707Z,100.00
2022-12-24T21:50:32.138Z,100.00
2022-12-24T21:52:49.814Z,100.00
2022-12-24T21:55:07.054Z,100.00
2022-12-24T21:57:24.187Z,100.00
2022-12-24T21:59:42.073Z,100.00
2022-12-24T22:01:59.499Z,100.00
2022-12-24T22:04:17.000Z,100.00
2022-12-24T22:06:35.310Z,100.00
2022-12-24T22:08:52.301Z,100.00
2022-12-24T22:11:09.370Z,100.00
2022-12-24T22:13:26.343Z,100.00
2022-12-24T22:15:43.488Z,100.00
2022-12-24T22:18:00.785Z,100.00
2022-12-24T22:20:17.838Z,100.00
2022-12-24T22:22:35.186Z,100.00
2022-12-24T22:24:52.568Z,100.00
2022-12-24T22:27:09.880Z,100.00
2022-12-24T22:29:28.140Z,100.00
2022-12-24T22:31:46.407Z,100.00
2022-12-24T22:34:03.546Z,100.00
2022-12-24T22:36:20.473Z,100.00
2022-12-24T22:38:37.814Z,100.00
2022-12-24T22:40:54.767Z,100.00
2022-12-24T22:43:12.148Z,100.00
2022-12-24T22:45:29.209Z,100.00
2022-12-24T22:47:46.063Z,100.00
2022-12-24T22:50:03.128Z,100.00
2022-12-24T22:52:20.075Z,100.00
2022-12-24T22:54:37.215Z,100.00
2022-12-24T22:56:54.147Z,100.00
2022-12-24T22:59:11.078Z,100.00
2022-12-24T23:01:28.206Z,100.00
2022-12-24T23:03:45.539Z,100.00
2022-12-24T23:06:02.616Z,100.00
2022-12-24T23:08:19.727Z,100.00
2022-12-24T23:10:36.718Z,100.00
2022-12-24T23:12:53.998Z,100.00
2022-12-24T23:15:11.059Z,100.00
2022-12-24T23:17:28.345Z,100.00
2022-12-24T23:19:45.392Z,100.00
2022-12-24T23:22:02.357Z,100.00
2022-12-24T23:24:19.418Z,100.00
2022-12-24T23:26:36.716Z,100.00
2022-12-24T23:28:54.148Z,100.00
2022-12-24T23:31:12.280Z,100.00
2022-12-24T23:33:29.279Z,100.00
2022-12-24T23:35:46.333Z,100.00
2022-12-24T23:38:03.297Z,100.00
2022-12-24T23:40:20.344Z,100.00
2022-12-24T23:42:37.411Z,100.00
2022-12-24T23:44:54.525Z,100.00
2022-12-24T23:47:12.471Z,100.00
2022-12-24T23:49:29.814Z,100.00
2022-12-24T23:51:47.567Z,100.00
2022-12-24T23:54:04.614Z,100.00
2022-12-24T23:56:22.029Z,100.00
2022-12-24T23:58:39.452Z,100.00
